Time;durP1;ratioP1;P1;durP2;ratioP2;P2;SDS_P1;SDS_P2;PMS_P1;PMS_P2;Temp;Humidity;BMP_temperature;BMP_pressure;BME280_temperature;BME280_humidity;BME280_pressure;Samples;Min_cycle;Max_cycle;Signal;HPM_P1;HPM_P2
2022/06/15 00:01:46;;;;;;;2.23;1.60;;;22.50;65.30;;;;;;5072049;28;20537;-80
2022/06/15 00:04:15;;;;;;;1.60;1.50;;;22.40;66.90;;;;;;5071821;28;21868;-80
2022/06/15 00:06:43;;;;;;;2.90;1.80;;;22.40;66.60;;;;;;5071237;28;20458;-80
2022/06/15 00:09:12;;;;;;;2.03;1.80;;;22.40;65.10;;;;;;5071667;28;21368;-81
2022/06/15 00:11:42;;;;;;;1.73;1.50;;;22.30;64.30;;;;;;5068588;28;20455;-81
2022/06/15 00:14:13;;;;;;;3.00;1.70;;;22.30;63.10;;;;;;5070325;28;20822;-81
2022/06/15 00:16:41;;;;;;;3.93;2.00;;;22.30;63.70;;;;;;5071254;28;20599;-80
2022/06/15 00:19:11;;;;;;;1.70;1.60;;;22.20;65.30;;;;;;5071702;28;20505;-80
2022/06/15 00:21:40;;;;;;;1.87;1.77;;;22.10;66.90;;;;;;5068029;28;20457;-80
2022/06/15 00:24:08;;;;;;;2.43;1.90;;;22.10;63.10;;;;;;5071494;28;20461;-81
2022/06/15 00:41:46;;;;;;;2.50;2.17;;;21.90;66.00;;;;;;5059737;28;20441;-81
2022/06/15 00:44:35;;;;;;;2.63;1.67;;;21.80;66.50;;;;;;5060254;28;20472;-82
2022/06/15 00:50:50;;;;;;;2.37;2.00;;;21.70;64.80;;;;;;5067342;28;20528;-81
2022/06/15 00:53:19;;;;;;;3.73;2.07;;;21.60;65.40;;;;;;5070727;28;20453;-81
2022/06/15 00:55:47;;;;;;;1.80;1.70;;;21.60;69.40;;;;;;5070017;28;20539;-80
2022/06/15 00:58:16;;;;;;;2.27;1.70;;;21.60;69.70;;;;;;5070728;28;21075;-81
2022/06/15 01:00:47;;;;;;;2.53;1.87;;;21.60;71.50;;;;;;5071007;28;20490;-80
2022/06/15 01:03:15;;;;;;;1.90;1.80;;;21.60;70.90;;;;;;5070842;28;20456;-80
2022/06/15 01:05:52;;;;;;;5.73;2.70;;;21.50;70.10;;;;;;5064667;28;20470;-80
2022/06/15 01:08:33;;;;;;;2.07;1.77;;;21.50;68.00;;;;;;5069408;28;20502;-81
2022/06/15 01:11:22;;;;;;;1.60;1.50;;;21.50;66.80;;;;;;5071224;28;20464;-81
2022/06/15 01:14:23;;;;;;;2.17;1.97;;;21.40;66.50;;;;;;5070902;28;21000;-81
2022/06/15 01:16:59;;;;;;;2.10;1.97;;;21.40;65.90;;;;;;5057622;28;20461;-81
2022/06/15 01:20:08;;;;;;;2.77;1.70;;;21.40;65.80;;;;;;5069125;28;20576;-80
2022/06/15 01:23:11;;;;;;;2.50;2.00;;;21.40;64.60;;;;;;4982221;28;21052;-80
2022/06/15 01:25:43;;;;;;;3.13;1.80;;;21.50;66.30;;;;;;5051364;28;20482;-81
2022/06/15 01:28:36;;;;;;;3.60;1.80;;;21.40;65.00;;;;;;5070326;28;20529;-81
2022/06/15 01:31:13;;;;;;;2.17;1.57;;;21.40;64.50;;;;;;5070593;28;20461;-81
2022/06/15 01:33:50;;;;;;;1.70;1.60;;;21.40;63.60;;;;;;5069180;28;20446;-80
2022/06/15 01:36:24;;;;;;;2.00;1.70;;;21.30;63.90;;;;;;5069303;28;20484;-81
2022/06/15 01:39:00;;;;;;;1.97;1.87;;;21.30;65.40;;;;;;5069527;28;20860;-80
2022/06/15 01:41:34;;;;;;;2.00;1.90;;;21.30;66.70;;;;;;5068797;28;20448;-80
2022/06/15 01:44:10;;;;;;;2.93;1.90;;;21.20;68.80;;;;;;5070349;28;20456;-80
2022/06/15 01:46:43;;;;;;;3.97;1.90;;;21.20;69.60;;;;;;5069860;28;20452;-81
2022/06/15 01:49:17;;;;;;;2.10;1.90;;;21.20;69.90;;;;;;5070103;28;20954;-81
2022/06/15 01:51:45;;;;;;;2.00;1.80;;;21.10;69.80;;;;;;5068878;28;20985;-81
2022/06/15 01:54:19;;;;;;;2.47;2.00;;;21.10;73.00;;;;;;5069465;28;20481;-80
2022/06/15 01:56:49;;;;;;;2.13;1.83;;;21.10;72.20;;;;;;5060529;28;20478;-81
2022/06/15 01:59:21;;;;;;;2.87;2.57;;;21.10;73.40;;;;;;5064701;28;20499;-81
2022/06/15 02:02:01;;;;;;;1.73;1.63;;;21.10;74.10;;;;;;5069072;28;20454;-81
2022/06/15 02:04:35;;;;;;;2.17;2.07;;;21.00;74.00;;;;;;5068896;28;21284;-81
2022/06/15 02:07:13;;;;;;;2.07;1.97;;;21.10;76.20;;;;;;5068539;28;20447;-80
2022/06/15 02:09:48;;;;;;;2.47;2.00;;;21.10;76.20;;;;;;5069159;28;20454;-80
2022/06/15 02:12:22;;;;;;;2.10;2.00;;;21.10;76.00;;;;;;5069582;28;20453;-81
2022/06/15 02:14:54;;;;;;;2.90;2.70;;;21.10;74.10;;;;;;5067637;28;20482;-80
2022/06/15 02:17:27;;;;;;;2.00;1.70;;;21.00;74.90;;;;;;5069154;28;20528;-81
2022/06/15 02:20:00;;;;;;;3.10;1.70;;;21.00;74.50;;;;;;5068928;28;21050;-80
2022/06/15 02:22:32;;;;;;;2.57;2.10;;;20.80;73.60;;;;;;5065948;28;20478;-81
2022/06/15 02:25:04;;;;;;;3.03;2.40;;;20.80;74.00;;;;;;5069251;28;20476;-81
2022/06/15 02:27:34;;;;;;;2.60;2.40;;;20.70;77.20;;;;;;5069135;28;20911;-81
2022/06/15 02:30:06;;;;;;;2.97;2.00;;;20.70;77.60;;;;;;5067283;28;20463;-81
2022/06/15 02:32:38;;;;;;;2.00;1.90;;;20.70;76.70;;;;;;5068032;28;20456;-81
2022/06/15 02:35:07;;;;;;;2.43;2.00;;;20.60;77.60;;;;;;5068316;28;20485;-80
2022/06/15 02:37:36;;;;;;;2.53;2.20;;;20.60;77.20;;;;;;5069263;28;20525;-80
2022/06/15 02:40:05;;;;;;;2.27;2.07;;;20.60;78.00;;;;;;5069301;28;20528;-81
2022/06/15 02:42:35;;;;;;;2.80;2.60;;;20.50;77.60;;;;;;5069082;28;20545;-81
2022/06/15 02:45:08;;;;;;;2.20;1.83;;;20.40;77.40;;;;;;5068125;28;20467;-80
2022/06/15 02:47:41;;;;;;;2.90;2.70;;;20.40;77.80;;;;;;5062582;28;20459;-81
2022/06/15 02:50:11;;;;;;;2.30;1.80;;;20.40;80.20;;;;;;5065567;28;20910;-81
2022/06/15 02:52:43;;;;;;;2.50;2.30;;;20.50;81.10;;;;;;5068808;28;20447;-81
2022/06/15 02:55:12;;;;;;;3.87;2.40;;;20.50;82.20;;;;;;5054659;28;20883;-81
2022/06/15 02:57:46;;;;;;;2.00;1.60;;;20.50;82.40;;;;;;5068903;28;20455;-81
2022/06/15 03:00:16;;;;;;;3.17;2.30;;;20.50;82.60;;;;;;5069025;28;20459;-81
2022/06/15 03:02:45;;;;;;;2.10;1.90;;;20.50;81.70;;;;;;5069020;28;20459;-80
2022/06/15 03:05:14;;;;;;;3.80;3.50;;;20.50;83.40;;;;;;5066029;28;20481;-80
2022/06/15 03:07:42;;;;;;;4.13;2.37;;;20.50;85.30;;;;;;5067446;28;20546;-80
2022/06/15 03:10:11;;;;;;;2.77;2.57;;;20.50;84.20;;;;;;5065056;28;20949;-81
2022/06/15 03:12:39;;;;;;;2.03;1.93;;;20.50;80.40;;;;;;5069056;28;20836;-80
2022/06/15 03:15:08;;;;;;;2.00;1.90;;;20.50;83.20;;;;;;5057255;28;20561;-80
2022/06/15 03:17:36;;;;;;;3.10;2.57;;;20.50;82.00;;;;;;5073127;28;20452;-80
2022/06/15 03:20:07;;;;;;;2.47;2.27;;;20.40;83.00;;;;;;5073243;28;20473;-81
2022/06/15 03:22:35;;;;;;;3.20;2.90;;;20.30;80.30;;;;;;5070551;28;21054;-80
2022/06/15 03:25:04;;;;;;;2.90;2.50;;;20.30;82.50;;;;;;5072080;28;20557;-80
2022/06/15 03:27:33;;;;;;;2.53;2.20;;;20.30;83.00;;;;;;5072568;28;20507;-81
2022/06/15 03:30:04;;;;;;;2.97;2.43;;;20.30;83.50;;;;;;5072611;28;20470;-80
2022/06/15 03:32:32;;;;;;;2.30;2.10;;;20.30;82.60;;;;;;5071286;28;20517;-82
2022/06/15 03:35:00;;;;;;;2.87;2.53;;;20.20;83.00;;;;;;5072354;28;20473;-81
2022/06/15 03:37:30;;;;;;;3.07;2.20;;;20.20;83.00;;;;;;5072250;28;20477;-81
2022/06/15 03:39:58;;;;;;;2.90;2.63;;;20.30;82.90;;;;;;5062442;28;20454;-81
2022/06/15 03:42:27;;;;;;;2.90;1.90;;;20.20;83.30;;;;;;5070783;28;20449;-81
2022/06/15 03:44:55;;;;;;;2.67;2.10;;;20.30;81.80;;;;;;5072041;28;20494;-81
2022/06/15 03:47:24;;;;;;;2.03;1.80;;;20.20;82.80;;;;;;5070803;28;20966;-81
2022/06/15 03:49:54;;;;;;;2.67;2.00;;;20.20;85.00;;;;;;5072482;28;20463;-81
2022/06/15 03:52:24;;;;;;;3.27;1.90;;;20.20;82.30;;;;;;5072130;28;20450;-80
2022/06/15 03:54:54;;;;;;;3.10;2.90;;;20.10;82.70;;;;;;5070936;28;20501;-80
2022/06/15 03:57:23;;;;;;;2.47;2.20;;;20.20;86.60;;;;;;5071391;28;20465;-81
2022/06/15 03:59:51;;;;;;;2.40;2.20;;;20.10;82.50;;;;;;5071984;28;20470;-80
2022/06/15 04:02:19;;;;;;;3.00;2.43;;;20.10;82.90;;;;;;5070968;28;20537;-81
2022/06/15 04:04:48;;;;;;;3.80;1.87;;;20.00;84.50;;;;;;5071237;28;20462;-81
2022/06/15 04:10:02;;;;;;;2.90;2.70;;;20.10;86.60;;;;;;5104018;28;20449;-81
2022/06/15 04:12:34;;;;;;;5.07;2.00;;;20.10;87.30;;;;;;5065684;28;20542;-81
2022/06/15 04:15:03;;;;;;;2.43;2.23;;;20.10;90.20;;;;;;5066966;28;20473;-80
2022/06/15 04:17:31;;;;;;;2.23;2.00;;;20.00;87.40;;;;;;5071720;28;20513;-80
2022/06/15 04:22:45;;;;;;;4.07;2.13;;;20.10;86.90;;;;;;5071214;28;20458;-81
2022/06/15 04:25:14;;;;;;;4.40;2.37;;;20.20;88.30;;;;;;5070450;28;20470;-81
2022/06/15 04:27:43;;;;;;;3.30;2.00;;;20.20;91.00;;;;;;5071158;28;20450;-80
2022/06/15 04:30:13;;;;;;;5.87;2.30;;;20.30;92.80;;;;;;5066748;28;20478;-80
2022/06/15 04:32:41;;;;;;;3.80;2.50;;;20.30;92.40;;;;;;5069803;28;20457;-81
2022/06/15 04:35:10;;;;;;;2.63;2.43;;;20.20;92.20;;;;;;5070000;28;20485;-81
2022/06/15 04:37:38;;;;;;;2.73;2.50;;;20.00;92.40;;;;;;5070985;28;20489;-81
2022/06/15 04:40:08;;;;;;;2.77;2.10;;;20.10;93.40;;;;;;5070991;28;20443;-81
2022/06/15 04:42:38;;;;;;;3.87;2.63;;;20.10;94.10;;;;;;5071070;28;20458;-81
2022/06/15 04:45:07;;;;;;;3.27;3.00;;;20.20;95.80;;;;;;5069638;28;21002;-80
2022/06/15 04:47:35;;;;;;;15.70;7.60;;;20.10;93.60;;;;;;5068554;28;20450;-80
2022/06/15 04:50:05;;;;;;;7.30;6.03;;;20.10;94.90;;;;;;5069276;28;20454;-81
2022/06/15 04:52:33;;;;;;;3.93;3.50;;;20.10;94.40;;;;;;5070645;28;20512;-81
2022/06/15 04:55:04;;;;;;;3.90;3.60;;;20.10;99.90;;;;;;5069125;28;20474;-80
2022/06/15 04:57:32;;;;;;;2.90;2.60;;;20.20;95.50;;;;;;5070511;28;21043;-80
2022/06/15 05:00:02;;;;;;;2.30;2.20;;;20.10;96.20;;;;;;5069257;28;20473;-83
2022/06/15 05:02:30;;;;;;;4.80;3.47;;;20.20;96.30;;;;;;5070501;28;20450;-80
2022/06/15 05:04:59;;;;;;;2.80;2.60;;;20.20;97.90;;;;;;5065198;28;20482;-81
2022/06/15 05:07:27;;;;;;;5.00;3.17;;;20.20;98.60;;;;;;5070047;28;20451;-81
2022/06/15 05:09:56;;;;;;;4.83;2.53;;;20.20;98.70;;;;;;5072022;28;21023;-80
2022/06/15 05:12:24;;;;;;;2.20;1.97;;;20.30;99.00;;;;;;5070680;28;21360;-81
2022/06/15 05:14:53;;;;;;;3.23;2.87;;;20.20;98.40;;;;;;5070097;28;20479;-80
2022/06/15 05:17:24;;;;;;;2.80;2.60;;;20.20;98.60;;;;;;5069695;28;20474;-81
2022/06/15 05:19:52;;;;;;;3.33;2.67;;;20.30;98.80;;;;;;5070111;28;20450;-80
2022/06/15 05:22:21;;;;;;;2.90;2.60;;;20.30;99.70;;;;;;5070323;28;20516;-81
2022/06/15 05:24:49;;;;;;;3.07;2.77;;;20.30;99.90;;;;;;5069895;28;20619;-80
2022/06/15 05:27:17;;;;;;;3.67;2.53;;;20.30;99.30;;;;;;5070101;28;20465;-80
2022/06/15 05:29:45;;;;;;;3.90;3.60;;;20.40;99.50;;;;;;5070510;28;20462;-81
2022/06/15 05:32:13;;;;;;;3.93;2.77;;;20.50;99.20;;;;;;5069542;28;20977;-81
2022/06/15 05:34:43;;;;;;;7.37;2.30;;;20.60;99.40;;;;;;5068098;28;21142;-80
2022/06/15 05:37:12;;;;;;;3.03;2.73;;;20.70;99.90;;;;;;5066001;28;20479;-81
2022/06/15 05:39:41;;;;;;;3.20;2.97;;;20.80;99.90;;;;;;5062384;28;20461;-80
2022/06/15 05:42:09;;;;;;;3.10;2.10;;;20.90;99.90;;;;;;5069636;28;20447;-81
2022/06/15 05:44:43;;;;;;;5.60;2.27;;;20.90;99.90;;;;;;5069879;28;20479;-80
2022/06/15 05:47:12;;;;;;;3.43;2.30;;;21.00;99.90;;;;;;5069639;28;20459;-81
2022/06/15 05:49:43;;;;;;;2.40;2.20;;;21.00;99.90;;;;;;5070130;28;20805;-81
2022/06/15 05:52:11;;;;;;;3.30;2.33;;;21.00;99.90;;;;;;5069709;28;20452;-81
2022/06/15 05:54:39;;;;;;;5.10;2.40;;;21.10;99.90;;;;;;5068749;28;20471;-80
2022/06/15 05:57:12;;;;;;;3.30;2.40;;;21.20;99.90;;;;;;5069296;28;20478;-81
2022/06/15 05:59:45;;;;;;;2.33;2.13;;;21.20;99.90;;;;;;5069705;28;20450;-81
2022/06/15 06:02:14;;;;;;;2.73;2.30;;;21.30;99.90;;;;;;5069391;28;20456;-81
2022/06/15 06:04:44;;;;;;;3.10;1.87;;;21.30;99.80;;;;;;5068975;28;20477;-80
2022/06/15 06:07:18;;;;;;;4.40;2.33;;;21.30;99.80;;;;;;5069119;28;20523;-80
2022/06/15 06:09:46;;;;;;;2.87;2.67;;;21.40;99.90;;;;;;5067346;28;20504;-79
2022/06/15 06:12:16;;;;;;;3.60;3.20;;;21.40;99.90;;;;;;5066187;28;20452;-81
2022/06/15 06:14:44;;;;;;;4.50;2.87;;;21.50;99.90;;;;;;5068733;28;20532;-80
2022/06/15 06:17:12;;;;;;;2.83;2.20;;;21.50;99.90;;;;;;5069186;28;20483;-81
2022/06/15 06:19:41;;;;;;;2.30;2.10;;;21.50;99.20;;;;;;5068831;28;20450;-81
2022/06/15 06:22:11;;;;;;;2.20;1.70;;;21.50;99.70;;;;;;5069593;28;20484;-80
2022/06/15 06:24:39;;;;;;;2.57;2.37;;;21.50;99.90;;;;;;5069423;28;20479;-80
2022/06/15 06:27:08;;;;;;;2.70;2.43;;;21.50;99.60;;;;;;5069102;28;20434;-81
2022/06/15 06:29:37;;;;;;;2.73;1.90;;;21.50;99.40;;;;;;5058393;28;20841;-80
2022/06/15 06:32:06;;;;;;;2.90;1.83;;;21.60;99.90;;;;;;5069778;28;20487;-80
2022/06/15 06:34:35;;;;;;;2.43;1.73;;;21.70;99.90;;;;;;5067656;28;20482;-81
2022/06/15 06:37:05;;;;;;;1.90;1.80;;;21.70;99.90;;;;;;5068831;28;20462;-81
2022/06/15 06:39:36;;;;;;;2.73;2.27;;;21.80;99.90;;;;;;5069442;28;20995;-81
2022/06/15 06:42:06;;;;;;;5.00;2.00;;;21.80;99.90;;;;;;5069332;28;20468;-80
2022/06/15 06:44:34;;;;;;;2.50;1.83;;;21.90;99.90;;;;;;5069035;28;21035;-80
2022/06/15 06:47:03;;;;;;;2.47;1.70;;;22.00;99.90;;;;;;5067500;28;20546;-81
2022/06/15 06:49:31;;;;;;;1.80;1.70;;;22.00;99.90;;;;;;5067931;28;20438;-80
2022/06/15 06:51:59;;;;;;;1.77;1.67;;;22.00;99.90;;;;;;5067696;28;20511;-80
2022/06/15 06:54:27;;;;;;;3.57;1.70;;;22.10;99.90;;;;;;5058493;28;20478;-81
2022/06/15 06:56:57;;;;;;;2.83;1.90;;;22.10;99.90;;;;;;5066750;28;20449;-81
2022/06/15 06:59:29;;;;;;;1.57;1.47;;;22.20;99.90;;;;;;5068220;28;20479;-85
2022/06/15 07:01:57;;;;;;;2.60;2.07;;;22.20;99.40;;;;;;5067798;28;20454;-80
2022/06/15 07:04:25;;;;;;;2.40;1.93;;;22.30;98.40;;;;;;5056510;28;20885;-80
2022/06/15 07:06:57;;;;;;;2.10;1.70;;;22.20;97.50;;;;;;5067978;28;20860;-81
2022/06/15 07:09:26;;;;;;;2.20;1.77;;;22.30;98.00;;;;;;5068016;28;20473;-81
2022/06/15 07:11:54;;;;;;;2.70;1.90;;;22.40;99.90;;;;;;5068706;28;20569;-80
2022/06/15 07:14:24;;;;;;;1.70;1.60;;;22.50;99.50;;;;;;5068007;28;20827;-80
2022/06/15 07:16:52;;;;;;;1.90;1.53;;;22.60;99.90;;;;;;5066870;28;20453;-81
2022/06/15 07:19:20;;;;;;;2.83;1.83;;;22.70;99.90;;;;;;5064528;28;20668;-81
2022/06/15 07:21:48;;;;;;;4.17;1.63;;;22.80;99.90;;;;;;5066544;28;20957;-80
2022/06/15 07:24:16;;;;;;;1.70;1.43;;;22.70;99.00;;;;;;5067973;28;20473;-81
2022/06/15 07:26:47;;;;;;;2.83;1.73;;;22.80;99.90;;;;;;5068694;28;20865;-81
2022/06/15 07:29:20;;;;;;;1.90;1.80;;;22.90;99.90;;;;;;5068269;28;20963;-81
2022/06/15 07:31:53;;;;;;;3.67;1.70;;;22.90;99.90;;;;;;5068238;28;20978;-80
2022/06/15 07:34:21;;;;;;;2.07;1.97;;;23.00;99.90;;;;;;5066295;28;20485;-80
2022/06/15 07:36:50;;;;;;;1.83;1.73;;;23.10;99.90;;;;;;5066985;28;20458;-80
2022/06/15 07:39:21;;;;;;;3.80;1.90;;;23.20;99.90;;;;;;5068400;28;20466;-81
2022/06/15 07:41:50;;;;;;;3.50;2.20;;;23.20;99.90;;;;;;5068311;28;20443;-80
2022/06/15 07:44:20;;;;;;;2.90;1.93;;;23.30;99.90;;;;;;5067876;28;20479;-80
2022/06/15 07:49:54;;;;;;;2.10;1.90;;;23.40;99.90;;;;;;5067621;28;20966;-81
2022/06/15 07:52:52;;;;;;;1.77;1.60;;;23.50;99.90;;;;;;5056448;28;20569;-81
2022/06/15 07:55:24;;;;;;;1.97;1.70;;;23.60;99.90;;;;;;5061867;28;20852;-81
2022/06/15 07:57:53;;;;;;;2.00;1.90;;;23.60;99.90;;;;;;5066757;28;20519;-80
2022/06/15 08:00:23;;;;;;;1.90;1.80;;;23.60;99.90;;;;;;5068867;28;20442;-81
2022/06/15 08:02:53;;;;;;;2.47;2.20;;;23.70;99.90;;;;;;5071517;28;20450;-81
2022/06/15 08:05:22;;;;;;;1.97;1.83;;;23.70;99.90;;;;;;5070526;28;20482;-80
2022/06/15 08:07:51;;;;;;;3.30;2.53;;;23.80;99.90;;;;;;5071578;28;20459;-81
2022/06/15 08:10:21;;;;;;;3.67;2.10;;;23.80;99.90;;;;;;5069449;28;20512;-81
2022/06/15 08:12:50;;;;;;;1.97;1.77;;;23.90;99.90;;;;;;5071600;28;20473;-80
2022/06/15 08:15:18;;;;;;;4.30;1.80;;;24.00;99.90;;;;;;5071276;28;20466;-80
2022/06/15 08:17:50;;;;;;;1.80;1.70;;;24.10;99.90;;;;;;5071702;28;20454;-80
2022/06/15 08:20:23;;;;;;;1.93;1.60;;;24.10;99.90;;;;;;5071366;28;20457;-81
2022/06/15 08:22:55;;;;;;;1.80;1.70;;;24.10;99.90;;;;;;5071776;28;20458;-80
2022/06/15 08:25:33;;;;;;;1.90;1.80;;;24.10;99.90;;;;;;5072422;28;20997;-80
2022/06/15 08:28:02;;;;;;;2.10;2.00;;;24.20;99.90;;;;;;5068010;28;21000;-80
2022/06/15 08:30:30;;;;;;;1.40;1.30;;;24.20;99.90;;;;;;5073617;28;20449;-80
2022/06/15 08:32:58;;;;;;;3.00;1.67;;;24.20;99.90;;;;;;5072102;28;20458;-80
2022/06/15 08:35:28;;;;;;;1.90;1.80;;;24.30;99.90;;;;;;5070200;28;20527;-81
2022/06/15 08:37:56;;;;;;;1.70;1.60;;;24.30;99.90;;;;;;5071252;28;20450;-80
2022/06/15 08:40:26;;;;;;;2.43;1.80;;;24.40;99.90;;;;;;5073180;28;20479;-80
2022/06/15 08:43:01;;;;;;;2.27;1.83;;;24.40;99.90;;;;;;5073235;28;20455;-80
2022/06/15 08:45:37;;;;;;;2.57;1.97;;;24.50;99.90;;;;;;5059154;28;20466;-81
2022/06/15 08:48:23;;;;;;;1.50;1.40;;;24.50;99.90;;;;;;5071119;28;20458;-80
2022/06/15 08:50:58;;;;;;;1.60;1.50;;;24.70;99.90;;;;;;5072786;28;20882;-82
2022/06/15 08:53:35;;;;;;;2.07;1.87;;;24.60;99.90;;;;;;5072296;28;20458;-81
2022/06/15 08:56:07;;;;;;;2.23;2.13;;;24.70;99.90;;;;;;5071860;28;20470;-81
2022/06/15 08:58:43;;;;;;;1.60;1.50;;;24.70;99.90;;;;;;5073517;28;20523;-80
2022/06/15 09:01:19;;;;;;;4.40;1.87;;;24.80;99.90;;;;;;5070921;28;20539;-80
2022/06/15 09:03:55;;;;;;;1.90;1.80;;;24.90;99.90;;;;;;5073552;28;20458;-80
2022/06/15 09:06:36;;;;;;;2.03;1.83;;;24.90;99.90;;;;;;5071772;28;20499;-80
2022/06/15 09:09:17;;;;;;;2.23;1.93;;;24.90;99.90;;;;;;5073449;28;21158;-79
2022/06/15 09:12:49;;;;;;;2.50;1.67;;;24.90;99.90;;;;;;5069850;28;20808;-81
2022/06/15 09:14:59;;;;;;;1.63;1.53;;;25.00;99.90;;;;;;5073154;28;21028;-79
2022/06/15 09:17:28;;;;;;;1.40;1.30;;;25.10;99.90;;;;;;5073207;28;20496;-80
2022/06/15 09:20:02;;;;;;;1.90;1.30;;;25.00;99.90;;;;;;5063699;28;20472;-81
2022/06/15 09:22:36;;;;;;;2.07;1.30;;;25.20;99.90;;;;;;5070630;28;20463;-81
2022/06/15 09:25:10;;;;;;;2.10;1.43;;;25.20;99.90;;;;;;5069407;28;20844;-80
2022/06/15 09:27:47;;;;;;;1.60;1.50;;;25.20;99.90;;;;;;5068604;28;20450;-80
2022/06/15 09:30:20;;;;;;;1.70;1.60;;;25.30;99.90;;;;;;5069957;28;20442;-80
2022/06/15 09:32:54;;;;;;;2.50;1.60;;;25.40;99.90;;;;;;5068995;28;20710;-81
2022/06/15 09:35:29;;;;;;;1.60;1.50;;;25.40;99.90;;;;;;5066264;28;20922;-80
2022/06/15 09:38:01;;;;;;;2.90;1.67;;;25.40;99.90;;;;;;5069948;28;20794;-79
2022/06/15 09:40:36;;;;;;;1.37;1.23;;;25.60;99.90;;;;;;5069889;28;20482;-80
2022/06/15 09:43:11;;;;;;;2.63;1.70;;;25.60;99.90;;;;;;5069651;28;20465;-80
2022/06/15 09:45:45;;;;;;;1.67;1.40;;;25.50;99.90;;;;;;5068828;28;20565;-81
2022/06/15 09:48:20;;;;;;;2.50;1.57;;;25.60;99.90;;;;;;5069666;28;20465;-81
2022/06/15 09:50:56;;;;;;;1.50;1.40;;;25.60;99.90;;;;;;5069461;28;20543;-81
2022/06/15 09:53:42;;;;;;;2.90;1.73;;;25.60;99.90;;;;;;5067997;28;20442;-81
2022/06/15 09:56:14;;;;;;;1.50;1.40;;;25.70;99.90;;;;;;5068597;28;20474;-80
2022/06/15 09:58:50;;;;;;;1.67;1.40;;;25.80;99.90;;;;;;5069169;28;20864;-81
2022/06/15 10:01:18;;;;;;;1.90;1.40;;;25.80;99.90;;;;;;5069478;28;20450;-80
2022/06/15 10:03:49;;;;;;;1.60;1.50;;;25.90;99.90;;;;;;5068885;28;20566;-80
2022/06/15 10:06:24;;;;;;;3.17;1.40;;;26.00;99.90;;;;;;5067949;28;20474;-80
2022/06/15 10:08:56;;;;;;;1.50;1.30;;;26.00;99.90;;;;;;5068444;28;20465;-80
2022/06/15 10:11:33;;;;;;;1.50;1.40;;;26.10;99.90;;;;;;5059138;28;20465;-80
2022/06/15 10:14:27;;;;;;;1.63;1.53;;;26.20;99.90;;;;;;5068832;28;20877;-80
2022/06/15 10:17:01;;;;;;;1.80;1.57;;;26.20;99.90;;;;;;5068987;28;20462;-80
2022/06/15 10:19:33;;;;;;;3.73;1.43;;;26.20;99.90;;;;;;5069209;28;20461;-80
2022/06/15 10:22:05;;;;;;;2.07;1.43;;;26.30;99.90;;;;;;5069251;28;20450;-80
2022/06/15 10:24:39;;;;;;;1.50;1.40;;;26.40;99.90;;;;;;5068789;28;20473;-81
2022/06/15 10:27:29;;;;;;;1.47;1.37;;;26.50;99.90;;;;;;5055573;28;20903;-81
2022/06/15 10:30:01;;;;;;;1.33;1.23;;;26.50;99.90;;;;;;5067349;28;20434;-79
2022/06/15 10:32:30;;;;;;;1.50;1.40;;;26.50;99.90;;;;;;5067541;28;20455;-79
2022/06/15 10:35:14;;;;;;;1.80;1.70;;;26.60;99.90;;;;;;5067305;28;20481;-80
2022/06/15 10:37:46;;;;;;;1.50;1.40;;;26.60;99.90;;;;;;5068715;28;20492;-80
2022/06/15 10:40:26;;;;;;;1.47;1.30;;;26.70;99.90;;;;;;5068640;28;20544;-81
2022/06/15 10:42:56;;;;;;;1.60;1.50;;;26.60;99.90;;;;;;5067634;28;20461;-80
2022/06/15 10:45:32;;;;;;;1.40;1.30;;;26.60;99.90;;;;;;5058526;28;20981;-82
2022/06/15 10:48:06;;;;;;;1.87;1.57;;;26.70;99.90;;;;;;5068495;28;20455;-80
2022/06/15 10:50:42;;;;;;;1.30;1.20;;;26.70;99.90;;;;;;5068917;28;20447;-80
2022/06/15 10:53:36;;;;;;;2.20;1.27;;;26.80;99.90;;;;;;5068488;28;21044;-80
2022/06/15 11:02:08;;;;;;;1.50;1.40;;;26.90;99.90;;;;;;5025144;28;20538;-81
2022/06/15 11:04:52;;;;;;;1.77;1.40;;;26.80;99.90;;;;;;5025124;28;20587;-80
2022/06/15 11:07:33;;;;;;;2.20;1.80;;;26.80;99.90;;;;;;5045091;28;20474;-81
2022/06/15 11:10:11;;;;;;;1.90;1.40;;;26.70;99.70;;;;;;5065480;28;20801;-80
2022/06/15 11:12:44;;;;;;;1.83;1.23;;;26.70;99.90;;;;;;5068604;28;20485;-81
2022/06/15 11:18:32;;;;;;;1.87;1.60;;;26.80;99.10;;;;;;5035635;28;20474;-81
2022/06/15 11:21:08;;;;;;;1.50;1.40;;;26.80;99.20;;;;;;5069546;28;20483;-80
2022/06/15 11:23:46;;;;;;;2.67;1.70;;;26.80;99.90;;;;;;5070501;28;21327;-81
2022/06/15 11:29:14;;;;;;;1.80;1.70;;;27.00;99.90;;;;;;5068346;28;20509;-81
2022/06/15 11:32:08;;;;;;;1.80;1.70;;;27.10;99.90;;;;;;5068187;28;20490;-80
2022/06/15 11:34:47;;;;;;;1.47;1.37;;;27.10;99.90;;;;;;5066100;28;20478;-79
2022/06/15 11:37:20;;;;;;;1.43;1.33;;;27.20;99.90;;;;;;5104104;28;21012;-81
2022/06/15 11:39:55;;;;;;;1.43;1.33;;;27.20;99.90;;;;;;5072149;28;20435;-81
2022/06/15 11:42:25;;;;;;;1.77;1.37;;;27.30;99.90;;;;;;5070625;28;20450;-81
2022/06/15 11:44:54;;;;;;;1.67;1.57;;;27.30;99.90;;;;;;5071197;28;21071;-80
2022/06/15 11:47:33;;;;;;;2.13;1.50;;;27.40;99.90;;;;;;5069834;28;20450;-81
2022/06/15 11:50:12;;;;;;;1.70;1.60;;;27.50;99.90;;;;;;5072166;28;20446;-81
2022/06/15 11:52:53;;;;;;;2.93;1.80;;;27.40;99.90;;;;;;5069603;28;20454;-81
2022/06/15 11:55:37;;;;;;;1.80;1.70;;;27.50;99.90;;;;;;5058589;28;20994;-82
2022/06/15 11:58:21;;;;;;;2.17;1.47;;;27.50;99.90;;;;;;5071758;28;20447;-80
2022/06/15 12:00:58;;;;;;;1.97;1.63;;;27.50;99.90;;;;;;5071896;28;20501;-81
2022/06/15 12:03:48;;;;;;;1.57;1.40;;;27.60;99.90;;;;;;5071129;28;20457;-81
2022/06/15 12:06:25;;;;;;;1.70;1.60;;;27.60;99.90;;;;;;5072081;28;20470;-82
2022/06/15 12:09:02;;;;;;;1.40;1.30;;;27.60;99.90;;;;;;5063799;28;20466;-81
2022/06/15 12:14:43;;;;;;;1.70;1.50;;;27.80;99.90;;;;;;5058505;28;20492;-80
2022/06/15 12:17:21;;;;;;;3.43;1.30;;;27.80;99.90;;;;;;5071221;28;20476;-81
2022/06/15 12:19:55;;;;;;;2.97;1.70;;;27.80;99.90;;;;;;5071612;28;20450;-80
2022/06/15 12:22:30;;;;;;;1.67;1.57;;;27.80;99.90;;;;;;5071308;28;20442;-81
2022/06/15 12:25:03;;;;;;;1.67;1.57;;;27.80;99.90;;;;;;5070015;28;20551;-80
2022/06/15 12:27:41;;;;;;;1.50;1.40;;;27.80;99.90;;;;;;5071297;28;20454;-81
2022/06/15 12:30:27;;;;;;;2.50;1.70;;;27.80;99.90;;;;;;5071584;28;20466;-81
2022/06/15 12:33:06;;;;;;;2.83;1.70;;;27.90;99.90;;;;;;5069982;28;20480;-81
2022/06/15 12:35:40;;;;;;;1.57;1.47;;;27.90;99.90;;;;;;5060944;28;20474;-80
2022/06/15 12:38:19;;;;;;;2.47;1.63;;;27.90;99.90;;;;;;5055350;28;20461;-82
2022/06/15 12:40:50;;;;;;;1.50;1.40;;;28.00;99.90;;;;;;5045336;28;20478;-79
2022/06/15 12:43:30;;;;;;;1.97;1.73;;;28.00;99.90;;;;;;5048431;28;20447;-76
2022/06/15 12:46:07;;;;;;;0.90;0.90;;;28.00;99.90;;;;;;5052160;28;20532;-74
2022/06/15 12:48:50;;;;;;;1.80;1.30;;;27.90;99.90;;;;;;5063723;28;20517;-79
2022/06/15 12:51:28;;;;;;;1.93;1.70;;;27.80;99.90;;;;;;5068587;28;20431;-78
2022/06/15 12:54:05;;;;;;;2.13;1.60;;;27.80;99.90;;;;;;5060004;28;20465;-80
2022/06/15 12:56:45;;;;;;;1.83;1.50;;;27.70;99.90;;;;;;5063834;28;20442;-79
2022/06/15 12:59:32;;;;;;;1.73;1.60;;;27.80;99.90;;;;;;5052724;28;20465;-79
2022/06/15 13:02:09;;;;;;;2.63;2.43;;;27.90;99.90;;;;;;5052496;28;20573;-80
2022/06/15 13:04:47;;;;;;;2.10;2.00;;;27.90;99.90;;;;;;5058195;28;20469;-80
2022/06/15 13:07:19;;;;;;;1.67;1.50;;;28.00;99.90;;;;;;5058207;28;20462;-80
2022/06/15 13:10:29;;;;;;;2.00;1.67;;;28.10;99.90;;;;;;5061022;28;20458;-79
2022/06/15 13:13:00;;;;;;;2.20;2.07;;;28.20;99.90;;;;;;5044480;28;20469;-78
2022/06/15 13:15:34;;;;;;;2.47;2.27;;;28.20;99.90;;;;;;5062669;28;20557;-79
2022/06/15 13:18:14;;;;;;;1.70;1.60;;;28.30;99.90;;;;;;5079714;28;22044;-79
2022/06/15 13:21:05;;;;;;;2.07;1.97;;;28.30;99.90;;;;;;5060409;28;20486;-80
2022/06/15 13:23:39;;;;;;;2.47;2.27;;;28.40;99.90;;;;;;5059154;28;20451;-79
2022/06/15 13:26:11;;;;;;;2.07;1.87;;;28.40;99.90;;;;;;5061671;28;20478;-81
2022/06/15 13:28:42;;;;;;;4.23;2.37;;;28.40;99.90;;;;;;5058079;28;20458;-80
2022/06/15 13:31:12;;;;;;;1.80;1.70;;;28.40;99.90;;;;;;5063674;28;20455;-80
2022/06/15 13:34:00;;;;;;;1.80;1.70;;;28.50;99.90;;;;;;5055475;28;20458;-80
2022/06/15 13:36:31;;;;;;;2.20;2.10;;;28.50;99.90;;;;;;5063798;28;20458;-81
2022/06/15 13:39:00;;;;;;;2.13;1.90;;;28.50;99.90;;;;;;5054592;28;20446;-81
2022/06/15 13:41:31;;;;;;;4.97;2.40;;;28.50;99.90;;;;;;5055137;28;21253;-81
2022/06/15 13:44:15;;;;;;;2.93;1.87;;;28.50;99.90;;;;;;5057754;28;20463;-83
2022/06/15 13:47:00;;;;;;;1.80;1.60;;;28.50;99.90;;;;;;5063012;28;20447;-81
2022/06/15 13:49:35;;;;;;;2.30;2.10;;;28.50;99.90;;;;;;5061693;28;20831;-81
2022/06/15 13:52:12;;;;;;;3.30;2.27;;;28.60;99.90;;;;;;5065855;28;20897;-80
2022/06/15 13:55:28;;;;;;;2.13;2.03;;;28.60;99.90;;;;;;5059515;28;21017;-80
2022/06/15 13:58:36;;;;;;;1.90;1.80;;;28.60;99.90;;;;;;5037812;28;20463;-80
2022/06/15 14:01:15;;;;;;;1.90;1.80;;;28.60;99.90;;;;;;5060162;28;20977;-80
2022/06/15 14:04:01;;;;;;;2.60;2.40;;;28.60;99.90;;;;;;5061257;28;20483;-81